Time;durP1;ratioP1;P1;durP2;ratioP2;P2;SDS_P1;SDS_P2;PMS_P1;PMS_P2;Temp;Humidity;BMP_temperature;BMP_pressure;BME280_temperature;BME280_humidity;BME280_pressure;Samples;Min_cycle;Max_cycle;Signal;HPM_P1;HPM_P2
2022/07/22 00:01:57;;;;;;;6.35;2.50;;;;;;;24.33;48.67;100406.19;5589832;31;33966;-70
2022/07/22 00:05:02;;;;;;;5.03;2.72;;;;;;;24.32;48.18;100404.56;5589849;31;34599;-70
2022/07/22 00:08:05;;;;;;;5.50;2.58;;;;;;;24.31;47.96;100404.81;5590259;31;34018;-70
2022/07/22 00:11:08;;;;;;;6.85;2.75;;;;;;;24.23;48.50;100412.34;5589738;31;33839;-70
2022/07/22 00:14:12;;;;;;;7.68;3.03;;;;;;;24.21;48.20;100414.50;5590050;31;34478;-70
2022/07/22 00:17:15;;;;;;;7.45;2.50;;;;;;;24.18;48.24;100408.75;5589715;31;33951;-70
2022/07/22 00:20:19;;;;;;;6.75;2.95;;;;;;;24.16;47.94;100400.88;5589962;31;34761;-69
2022/07/22 00:23:22;;;;;;;8.38;3.60;;;;;;;24.09;47.82;100410.28;5589617;31;34062;-70
2022/07/22 00:26:24;;;;;;;7.03;2.70;;;;;;;24.02;48.03;100412.34;5589610;31;33920;-70
2022/07/22 00:29:27;;;;;;;10.65;2.70;;;;;;;23.97;47.76;100417.72;5588949;31;32536;-70
2022/07/22 00:32:30;;;;;;;6.72;2.40;;;;;;;23.91;47.53;100405.22;5588284;31;34758;-70
2022/07/22 00:35:33;;;;;;;6.85;2.30;;;;;;;23.86;47.36;100411.41;5589535;31;34009;-70
2022/07/22 00:38:42;;;;;;;3.50;2.30;;;;;;;23.86;47.37;100411.41;5588853;31;34521;-70
2022/07/22 00:41:45;;;;;;;7.60;2.37;;;;;;;23.80;47.84;100407.81;5588923;31;32677;-70
2022/07/22 00:44:48;;;;;;;6.62;2.62;;;;;;;23.70;47.97;100404.16;5588764;31;33320;-70
2022/07/22 00:47:53;;;;;;;8.77;2.80;;;;;;;23.60;48.21;100404.84;5589409;31;35496;-70
2022/07/22 00:50:56;;;;;;;8.77;2.50;;;;;;;23.51;49.42;100411.78;5589162;31;34289;-70
2022/07/22 00:54:00;;;;;;;6.82;2.25;;;;;;;23.44;49.42;100413.00;5589421;31;34483;-70
2022/07/22 00:57:03;;;;;;;6.95;2.17;;;;;;;23.35;48.78;100409.91;5588687;31;33942;-70
2022/07/22 01:00:11;;;;;;;5.32;2.40;;;;;;;23.30;48.38;100416.06;5588868;31;33967;-70
2022/07/22 01:03:13;;;;;;;7.30;2.20;;;;;;;23.35;48.33;100416.16;5589114;31;34013;-70
2022/07/22 01:06:16;;;;;;;5.55;2.33;;;;;;;23.30;49.46;100423.37;5589178;31;34535;-70
2022/07/22 01:09:19;;;;;;;4.05;2.37;;;;;;;23.43;49.46;100425.72;5589107;31;34679;-70
2022/07/22 01:12:22;;;;;;;4.47;1.98;;;;;;;23.52;50.70;100428.84;5589023;31;34642;-70
2022/07/22 01:15:25;;;;;;;6.40;2.10;;;;;;;23.55;47.42;100434.56;5588386;31;34234;-70
2022/07/22 01:18:28;;;;;;;6.43;2.05;;;;;;;23.47;47.17;100432.31;5588024;31;33455;-70
2022/07/22 01:21:32;;;;;;;5.20;2.10;;;;;;;23.37;47.02;100424.84;5588770;31;34304;-70
2022/07/22 01:24:35;;;;;;;4.37;2.12;;;;;;;23.22;47.08;100424.63;5588491;31;33875;-70
2022/07/22 01:27:38;;;;;;;2.85;1.90;;;;;;;23.13;46.93;100431.56;5588808;31;34581;-70
2022/07/22 01:30:41;;;;;;;5.30;2.00;;;;;;;23.02;47.08;100427.06;5588089;31;32651;-70
2022/07/22 01:33:44;;;;;;;8.30;2.67;;;;;;;22.94;47.33;100424.78;5588587;31;34378;-70
2022/07/22 01:36:47;;;;;;;3.70;1.83;;;;;;;22.83;47.25;100420.25;5588629;31;33874;-69
2022/07/22 01:39:50;;;;;;;4.37;2.00;;;;;;;22.75;47.58;100423.37;5588926;31;34133;-70
2022/07/22 01:42:53;;;;;;;3.78;1.90;;;;;;;22.70;47.75;100418.72;5588584;31;33883;-70
2022/07/22 01:45:57;;;;;;;5.80;1.95;;;;;;;22.61;48.00;100414.72;5588721;31;32624;-70
2022/07/22 01:49:00;;;;;;;5.65;2.10;;;;;;;22.59;48.53;100418.75;5588787;31;34395;-69
2022/07/22 01:52:07;;;;;;;5.25;1.95;;;;;;;22.53;48.92;100426.78;5588295;31;34215;-70
2022/07/22 01:55:12;;;;;;;4.80;2.08;;;;;;;22.46;49.75;100415.28;5588232;31;34640;-70
2022/07/22 01:58:14;;;;;;;4.72;2.15;;;;;;;22.41;50.45;100425.22;5588274;31;34669;-70
2022/07/22 02:01:18;;;;;;;3.12;2.05;;;;;;;22.34;50.39;100421.84;5588498;31;34108;-69
2022/07/22 02:04:21;;;;;;;3.85;2.15;;;;;;;22.26;50.99;100422.25;5588310;31;34077;-70
2022/07/22 02:07:29;;;;;;;3.55;2.25;;;;;;;22.22;50.95;100421.91;5588106;31;34116;-70
2022/07/22 02:10:32;;;;;;;5.00;2.20;;;;;;;22.24;51.06;100422.50;5590456;31;35346;-70
2022/07/22 02:13:35;;;;;;;6.05;2.30;;;;;;;22.25;51.62;100417.91;5590730;31;34104;-69
2022/07/22 02:16:38;;;;;;;7.72;2.60;;;;;;;22.27;51.88;100422.00;5590655;31;35264;-69
2022/07/22 02:19:41;;;;;;;9.45;3.00;;;;;;;22.34;51.76;100421.84;5590855;31;34043;-69
2022/07/22 02:22:46;;;;;;;6.75;2.30;;;;;;;22.35;51.98;100424.31;5590628;31;34408;-69
2022/07/22 02:25:49;;;;;;;7.00;2.45;;;;;;;22.24;52.77;100429.78;5576631;31;34391;-69
2022/07/22 02:28:53;;;;;;;4.37;2.00;;;;;;;22.14;52.19;100445.78;5591038;31;34323;-69
2022/07/22 02:31:57;;;;;;;4.40;2.25;;;;;;;22.11;53.01;100452.53;5585738;31;156265;-69
2022/07/22 02:35:00;;;;;;;5.15;2.00;;;;;;;22.13;52.06;100454.97;5590415;31;33894;-69
2022/07/22 02:38:04;;;;;;;9.13;2.05;;;;;;;22.11;51.66;100460.63;5590698;31;34513;-69
2022/07/22 02:41:07;;;;;;;3.33;2.33;;;;;;;22.49;51.47;100443.75;5591070;31;34254;-69
2022/07/22 02:44:11;;;;;;;4.43;2.25;;;;;;;22.38;51.78;100456.25;5589532;31;34119;-69
2022/07/22 02:47:15;;;;;;;9.63;2.37;;;;;;;22.22;52.43;100454.31;5590510;31;34536;-69
2022/07/22 02:50:19;;;;;;;6.47;2.72;;;;;;;22.09;52.73;100457.34;5590885;31;34391;-69
2022/07/22 02:53:22;;;;;;;3.75;2.12;;;;;;;21.98;52.88;100453.59;5590273;31;34821;-69
2022/07/22 02:56:25;;;;;;;6.53;2.10;;;;;;;21.92;52.99;100457.25;5590398;31;34607;-70
2022/07/22 02:59:28;;;;;;;7.20;2.47;;;;;;;21.84;53.82;100452.22;5590422;31;34719;-69
2022/07/22 03:02:30;;;;;;;4.68;2.28;;;;;;;21.78;53.81;100453.19;5590351;31;33858;-69
2022/07/22 03:05:33;;;;;;;6.70;2.40;;;;;;;21.70;54.22;100445.44;5590386;31;33973;-69
2022/07/22 03:08:38;;;;;;;6.37;2.37;;;;;;;21.64;54.95;100452.62;5590537;31;34585;-69
2022/07/22 03:11:41;;;;;;;3.45;2.28;;;;;;;21.59;54.58;100454.41;5590147;31;33960;-69
2022/07/22 03:14:44;;;;;;;4.05;2.25;;;;;;;21.56;54.79;100452.19;5589436;31;33820;-70
2022/07/22 03:17:47;;;;;;;4.57;2.22;;;;;;;21.55;55.32;100455.94;5590312;31;33880;-70
2022/07/22 03:20:50;;;;;;;5.25;2.40;;;;;;;21.49;55.81;100455.03;5590276;31;34098;-70
2022/07/22 03:23:53;;;;;;;4.65;2.37;;;;;;;21.47;56.53;100459.00;5590147;31;34246;-71
2022/07/22 03:26:56;;;;;;;7.20;2.22;;;;;;;21.45;55.92;100463.81;5589126;31;32316;-70
2022/07/22 03:30:00;;;;;;;5.78;2.28;;;;;;;21.42;55.57;100475.91;5590084;31;33978;-71
2022/07/22 03:33:06;;;;;;;5.47;2.25;;;;;;;21.41;54.57;100476.12;5589948;31;35180;-70
2022/07/22 03:36:10;;;;;;;5.40;2.40;;;;;;;21.46;54.52;100474.37;5590027;31;33873;-70
2022/07/22 03:39:13;;;;;;;5.65;2.50;;;;;;;21.53;54.47;100475.09;5590038;31;34270;-70
2022/07/22 03:42:16;;;;;;;5.62;2.28;;;;;;;21.54;54.46;100479.41;5590098;31;34142;-70
2022/07/22 03:45:19;;;;;;;5.05;2.47;;;;;;;21.59;54.53;100489.53;5590229;31;34650;-69
2022/07/22 03:48:23;;;;;;;4.03;2.37;;;;;;;21.61;54.75;100482.81;5589921;31;34016;-68
2022/07/22 03:51:25;;;;;;;6.93;2.35;;;;;;;21.64;55.07;100476.91;5589778;31;33950;-69
2022/07/22 03:54:36;;;;;;;5.95;2.42;;;;;;;21.69;55.60;100471.63;5589876;31;34723;-69
2022/07/22 03:57:38;;;;;;;10.85;2.60;;;;;;;21.77;55.58;100475.84;5589089;31;33753;-68
2022/07/22 04:00:42;;;;;;;8.43;2.10;;;;;;;21.82;55.54;100475.97;5588970;31;33944;-68
2022/07/22 04:03:45;;;;;;;4.22;2.50;;;;;;;21.88;55.87;100479.59;5589873;31;33924;-69
2022/07/22 04:06:51;;;;;;;6.32;2.10;;;;;;;21.93;55.87;100477.00;5588988;31;34324;-69
2022/07/22 04:10:04;;;;;;;6.00;2.30;;;;;;;22.00;55.96;100477.69;5589700;31;34094;-69
2022/07/22 04:13:08;;;;;;;4.40;2.40;;;;;;;22.08;55.99;100474.59;5589674;31;34026;-69
2022/07/22 04:16:11;;;;;;;4.05;2.30;;;;;;;22.17;56.36;100477.75;5589350;31;32241;-69
2022/07/22 04:19:15;;;;;;;8.13;2.60;;;;;;;22.27;56.70;100467.94;5589927;31;34691;-69
2022/07/22 04:22:22;;;;;;;4.18;2.40;;;;;;;22.36;56.90;100471.09;5589909;31;34021;-69
2022/07/22 04:25:29;;;;;;;6.95;2.65;;;;;;;22.46;56.70;100468.56;5589446;31;34809;-69
2022/07/22 04:28:34;;;;;;;3.95;2.30;;;;;;;22.56;56.26;100481.44;5588803;31;34588;-69
2022/07/22 04:31:37;;;;;;;7.28;2.90;;;;;;;22.65;56.91;100483.50;5588768;31;35255;-68
2022/07/22 04:34:41;;;;;;;8.13;2.75;;;;;;;22.79;55.72;100479.44;5589451;31;34673;-69
2022/07/22 04:37:44;;;;;;;5.00;2.60;;;;;;;22.89;55.30;100467.97;5589470;31;33799;-70
2022/07/22 04:40:47;;;;;;;10.60;2.53;;;;;;;23.01;54.45;100470.59;5589091;31;33981;-68
2022/07/22 04:43:56;;;;;;;8.43;2.47;;;;;;;23.11;53.15;100473.44;5589429;31;33836;-68
2022/07/22 04:46:59;;;;;;;25.17;2.42;;;;;;;23.17;51.79;100473.28;5589343;31;35268;-68
2022/07/22 04:50:10;;;;;;;7.28;2.47;;;;;;;23.31;51.67;100474.56;5589196;31;34040;-68
2022/07/22 04:53:14;;;;;;;6.93;2.10;;;;;;;23.53;49.92;100474.63;5589342;31;34576;-69
2022/07/22 04:56:17;;;;;;;4.97;2.42;;;;;;;23.55;51.56;100474.37;5589042;31;34300;-68
2022/07/22 04:59:20;;;;;;;3.97;2.10;;;;;;;23.68;48.58;100474.81;5589245;31;34618;-68
2022/07/22 05:02:25;;;;;;;6.03;2.45;;;;;;;23.76;48.47;100471.69;5589031;31;33996;-68
2022/07/22 05:05:29;;;;;;;8.73;2.40;;;;;;;23.87;48.44;100486.16;5588899;31;34379;-67
2022/07/22 05:08:32;;;;;;;6.93;2.22;;;;;;;23.88;49.45;100493.22;5588843;31;34720;-68
2022/07/22 05:11:35;;;;;;;4.55;2.20;;;;;;;23.95;49.33;100482.22;5588411;31;33977;-68
2022/07/22 05:14:38;;;;;;;6.87;2.40;;;;;;;24.05;47.87;100482.34;5589105;31;34594;-69
2022/07/22 05:17:41;;;;;;;7.90;2.62;;;;;;;24.20;47.49;100480.66;5588340;31;34677;-68
2022/07/22 05:20:44;;;;;;;7.20;2.40;;;;;;;24.40;47.18;100490.06;5588553;31;35236;-68
2022/07/22 05:23:47;;;;;;;7.97;2.28;;;;;;;24.55;47.08;100485.59;5587981;31;32422;-68
2022/07/22 05:26:50;;;;;;;5.75;2.60;;;;;;;24.73;47.84;100487.13;5588624;31;34590;-69
2022/07/22 05:29:54;;;;;;;3.95;2.20;;;;;;;24.87;47.98;100480.22;5587810;31;33998;-68
2022/07/22 05:33:03;;;;;;;3.50;2.00;;;;;;;25.08;46.74;100483.88;5587942;31;34148;-68
2022/07/22 05:36:11;;;;;;;6.35;2.00;;;;;;;25.31;44.90;100490.84;5588435;31;34644;-68
2022/07/22 05:39:15;;;;;;;9.93;1.95;;;;;;;25.52;47.75;100487.16;5588213;31;33991;-68
2022/07/22 05:42:18;;;;;;;4.65;1.90;;;;;;;25.68;44.19;100488.09;5588658;31;33918;-68
2022/07/22 05:45:21;;;;;;;3.75;1.70;;;;;;;25.98;40.56;100493.66;5590602;31;33939;-68
2022/07/22 05:48:24;;;;;;;4.87;1.67;;;;;;;26.32;39.47;100494.87;5590260;31;34247;-67
2022/07/22 05:51:27;;;;;;;2.97;1.50;;;;;;;26.68;37.62;100495.75;5590454;31;33973;-67
2022/07/22 05:54:30;;;;;;;6.18;1.80;;;;;;;26.96;37.27;100496.34;5590426;31;35253;-67
2022/07/22 05:57:32;;;;;;;5.05;1.42;;;;;;;27.12;36.61;100506.13;5590528;31;35460;-67
2022/07/22 06:00:37;;;;;;;5.43;1.50;;;;;;;27.25;36.17;100503.62;5590540;31;34660;-67
2022/07/22 06:03:40;;;;;;;5.43;1.90;;;;;;;27.27;35.09;100500.66;5590483;31;34868;-67
2022/07/22 06:06:42;;;;;;;3.00;1.60;;;;;;;27.38;36.04;100505.00;5590087;31;33999;-67
2022/07/22 06:09:45;;;;;;;9.02;1.73;;;;;;;27.49;35.62;100508.56;5590294;31;34639;-68
2022/07/22 06:12:48;;;;;;;4.75;1.80;;;;;;;27.61;35.82;100503.59;5590140;31;34028;-67
2022/07/22 06:15:52;;;;;;;5.53;2.00;;;;;;;27.67;35.52;100506.03;5576624;31;33920;-67
2022/07/22 06:18:55;;;;;;;6.47;1.90;;;;;;;27.66;35.53;100503.59;5590813;31;34239;-67
2022/07/22 06:21:59;;;;;;;4.07;1.70;;;;;;;27.56;35.09;100512.59;5589912;31;32949;-67
2022/07/22 06:25:02;;;;;;;6.55;1.70;;;;;;;27.63;34.46;100517.78;5590973;31;33971;-67
2022/07/22 06:28:25;;;;;;;7.50;1.70;;;;;;;27.65;36.77;100507.41;5590376;31;35153;-68
2022/07/22 06:31:28;;;;;;;6.20;1.77;;;;;;;27.59;38.67;100505.81;5589587;31;34234;-68
2022/07/22 06:34:31;;;;;;;3.53;1.80;;;;;;;27.66;37.27;100507.13;5576100;31;32446;-68
2022/07/22 06:37:34;;;;;;;3.72;1.90;;;;;;;27.71;33.61;100511.75;5590586;31;34250;-67
2022/07/22 06:40:58;;;;;;;8.25;1.90;;;;;;;27.87;34.35;100509.78;5590266;31;33964;-67
2022/07/22 06:44:03;;;;;;;4.18;1.75;;;;;;;27.92;33.24;100507.87;5589871;31;34079;-68
2022/07/22 06:47:06;;;;;;;3.50;1.60;;;;;;;28.06;32.08;100505.34;5590147;31;34727;-68
2022/07/22 06:50:11;;;;;;;5.20;1.70;;;;;;;28.28;34.01;100507.69;5590366;31;34067;-68
2022/07/22 06:53:19;;;;;;;7.53;2.00;;;;;;;28.39;33.10;100507.38;5589456;31;34686;-68
2022/07/22 06:56:37;;;;;;;4.53;1.70;;;;;;;28.72;32.37;100505.81;5588259;31;33822;-68
2022/07/22 06:59:47;;;;;;;7.22;1.75;;;;;;;29.13;30.61;100502.75;5589747;31;34087;-68
2022/07/22 07:02:50;;;;;;;3.65;1.50;;;;;;;29.57;29.31;100508.88;5589769;31;34691;-68
2022/07/22 07:06:17;;;;;;;2.22;1.25;;;;;;;29.67;29.04;100505.22;5589238;31;34650;-68
2022/07/22 07:09:21;;;;;;;2.65;1.70;;;;;;;29.92;27.57;100501.41;5589943;31;34717;-68
2022/07/22 07:12:37;;;;;;;6.87;1.98;;;;;;;30.05;27.68;100501.47;5576977;31;34182;-69
2022/07/22 07:15:42;;;;;;;5.72;1.75;;;;;;;30.21;27.69;100493.84;5589558;31;34618;-68
2022/07/22 07:18:45;;;;;;;3.00;1.50;;;;;;;30.23;28.48;100495.22;5590093;31;34709;-68
2022/07/22 07:21:47;;;;;;;8.45;1.73;;;;;;;30.47;27.29;100505.28;5589542;31;33996;-68
2022/07/22 07:24:52;;;;;;;5.75;1.48;;;;;;;30.92;26.36;100498.28;5589193;31;35216;-67
2022/07/22 07:27:55;;;;;;;6.90;1.55;;;;;;;30.95;26.01;100508.63;5588787;31;33503;-68
2022/07/22 07:30:59;;;;;;;6.72;2.35;;;;;;;30.74;27.46;100493.66;5589701;31;34407;-68
2022/07/22 07:34:02;;;;;;;5.00;1.83;;;;;;;30.93;26.28;100502.66;5589088;31;35149;-68
2022/07/22 07:37:05;;;;;;;5.45;1.73;;;;;;;31.52;24.29;100490.91;5588833;31;34572;-67
2022/07/22 07:40:08;;;;;;;1.30;1.10;;;;;;;32.33;24.46;100492.81;5589323;31;33922;-68
2022/07/22 07:43:12;;;;;;;4.75;1.40;;;;;;;32.96;21.44;100486.38;5588381;31;34003;-68
2022/07/22 07:46:17;;;;;;;5.43;2.03;;;;;;;33.51;21.68;100489.56;5589198;31;34106;-70
2022/07/22 07:49:21;;;;;;;8.05;1.60;;;;;;;34.12;20.62;100484.25;5589427;31;34023;-69
2022/07/22 07:52:24;;;;;;;5.53;1.60;;;;;;;33.89;22.42;100494.59;5589397;31;34951;-68
2022/07/22 07:55:29;;;;;;;6.95;1.30;;;;;;;34.63;20.14;100491.75;5589641;31;34625;-68
2022/07/22 07:58:32;;;;;;;3.05;1.12;;;;;;;34.37;19.89;100494.53;5589675;31;35274;-69
2022/07/22 08:01:42;;;;;;;3.62;1.27;;;;;;;35.76;19.37;100491.16;5589666;31;34282;-69
2022/07/22 08:05:02;;;;;;;2.40;1.30;;;;;;;36.56;18.75;100498.22;5589392;31;33996;-69
2022/07/22 08:08:07;;;;;;;1.90;1.17;;;;;;;37.42;18.46;100494.59;5588707;31;34736;-68
2022/07/22 08:11:17;;;;;;;3.55;1.27;;;;;;;37.39;18.24;100486.19;5588807;31;32982;-69
2022/07/22 08:14:21;;;;;;;4.18;1.50;;;;;;;37.42;18.86;100491.81;5589034;31;32402;-69
2022/07/22 08:17:25;;;;;;;6.40;1.40;;;;;;;37.36;18.21;100486.88;5588761;31;33845;-69
2022/07/22 08:20:28;;;;;;;6.15;1.75;;;;;;;36.42;19.04;100488.59;5589963;31;33988;-70
2022/07/22 08:23:32;;;;;;;5.85;1.48;;;;;;;35.93;20.57;100488.28;5588845;31;32403;-70
2022/07/22 08:26:36;;;;;;;3.40;1.45;;;;;;;34.63;21.27;100487.03;5589475;31;34545;-69
2022/07/22 08:29:39;;;;;;;6.07;1.23;;;;;;;34.59;20.69;100477.00;5589647;31;34219;-69
2022/07/22 08:32:41;;;;;;;8.68;1.23;;;;;;;36.10;18.51;100479.09;5589298;31;34415;-69
2022/07/22 08:35:44;;;;;;;4.50;1.33;;;;;;;37.51;17.98;100482.62;5589156;31;33948;-68
2022/07/22 08:38:47;;;;;;;5.68;1.50;;;;;;;38.32;16.46;100485.22;5588409;31;35083;-68
2022/07/22 08:41:50;;;;;;;5.00;1.58;;;;;;;39.01;16.94;100476.53;5588399;31;32840;-70
2022/07/22 08:44:55;;;;;;;5.03;1.20;;;;;;;39.38;16.19;100468.78;5589661;31;34033;-70
2022/07/22 08:48:06;;;;;;;3.87;1.30;;;;;;;38.95;15.88;100482.69;5589208;31;34700;-70
2022/07/22 08:51:11;;;;;;;7.70;1.48;;;;;;;37.53;16.30;100480.31;5589265;31;33981;-68
2022/07/22 08:54:14;;;;;;;3.03;1.30;;;;;;;36.94;18.27;100475.13;5588533;31;32616;-70
2022/07/22 08:57:18;;;;;;;3.42;1.17;;;;;;;38.65;16.08;100468.38;5575170;31;32332;-70
2022/07/22 09:00:23;;;;;;;2.87;1.00;;;;;;;38.51;16.74;100479.06;5589313;31;34366;-70
2022/07/22 09:03:27;;;;;;;9.30;2.03;;;;;;;38.76;15.71;100479.75;5588024;31;32932;-70
2022/07/22 09:06:33;;;;;;;4.32;1.40;;;;;;;40.29;14.98;100482.41;5575417;31;32819;-71
2022/07/22 09:09:36;;;;;;;5.43;1.23;;;;;;;40.88;14.55;100476.47;5588897;31;33988;-70
2022/07/22 09:13:00;;;;;;;3.35;1.25;;;;;;;39.62;14.67;100475.28;5574997;31;33162;-69
2022/07/22 09:16:05;;;;;;;3.37;1.23;;;;;;;39.52;14.35;100471.91;5588954;31;35293;-70
2022/07/22 09:19:11;;;;;;;5.95;1.35;;;;;;;40.88;14.83;100467.31;5588558;31;34669;-70
2022/07/22 09:22:31;;;;;;;3.15;1.17;;;;;;;39.88;14.79;100462.47;5589269;31;33842;-70
2022/07/22 09:25:36;;;;;;;5.30;1.20;;;;;;;40.75;13.67;100469.47;5589155;31;34513;-70
2022/07/22 09:28:54;;;;;;;4.62;1.10;;;;;;;41.81;13.11;100462.16;5588671;31;34126;-69
2022/07/22 09:32:03;;;;;;;3.83;1.42;;;;;;;42.58;12.44;100459.59;5588719;31;34799;-70
2022/07/22 09:35:10;;;;;;;2.67;1.33;;;;;;;42.13;13.13;100463.41;5574951;31;33860;-70
2022/07/22 09:38:18;;;;;;;2.67;1.33;;;;;;;41.81;12.70;100460.16;5587963;31;32685;-70
2022/07/22 09:41:26;;;;;;;4.60;1.50;;;;;;;41.57;13.25;100461.41;5587836;31;34127;-70
2022/07/22 09:44:32;;;;;;;10.25;1.60;;;;;;;41.72;14.45;100447.69;5575238;31;34948;-70
2022/07/22 09:47:35;;;;;;;3.83;1.40;;;;;;;42.70;12.60;100458.56;5588412;31;34490;-69
2022/07/22 09:50:42;;;;;;;4.62;1.50;;;;;;;44.24;12.89;100456.59;5587454;31;33522;-70
2022/07/22 09:53:45;;;;;;;8.07;1.50;;;;;;;43.88;12.91;100445.22;5575015;31;33095;-69
2022/07/22 09:56:49;;;;;;;7.20;1.50;;;;;;;45.15;11.18;100450.47;5587556;31;32360;-70
2022/07/22 09:59:52;;;;;;;5.35;1.58;;;;;;;44.60;11.93;100449.91;5574312;31;32283;-70
2022/07/22 10:03:00;;;;;;;7.70;1.50;;;;;;;44.18;12.93;100442.97;5586835;31;33992;-70
2022/07/22 10:06:06;;;;;;;4.55;1.42;;;;;;;44.49;12.38;100435.12;5587906;31;34173;-70
2022/07/22 10:09:11;;;;;;;4.53;1.40;;;;;;;45.69;12.38;100431.59;5587556;31;34268;-70
2022/07/22 10:12:18;;;;;;;3.25;1.62;;;;;;;46.88;10.95;100434.25;5574480;31;32340;-70
2022/07/22 10:15:23;;;;;;;3.87;1.45;;;;;;;44.93;11.75;100435.59;5586942;31;33690;-71
2022/07/22 10:18:30;;;;;;;2.83;1.52;;;;;;;44.28;11.93;100430.25;5588179;31;35217;-70
2022/07/22 10:21:34;;;;;;;3.95;1.40;;;;;;;44.10;12.02;100426.56;5586742;31;33379;-71
2022/07/22 10:25:00;;;;;;;4.95;1.70;;;;;;;44.49;12.17;100421.91;5587694;31;33868;-70
2022/07/22 10:28:05;;;;;;;3.55;1.67;;;;;;;46.10;12.63;100420.66;5586680;31;34275;-69
2022/07/22 10:31:24;;;;;;;2.78;1.70;;;;;;;45.51;11.45;100420.41;5589507;31;33480;-68
2022/07/22 10:34:27;;;;;;;4.20;1.62;;;;;;;45.63;12.18;100420.00;5589684;31;33341;-68
2022/07/22 10:37:40;;;;;;;5.50;2.30;;;;;;;45.75;11.76;100416.75;5590398;31;34566;-68
2022/07/22 10:40:57;;;;;;;6.35;1.70;;;;;;;46.97;11.24;100410.16;5590442;31;33886;-69
2022/07/22 10:44:00;;;;;;;6.43;1.85;;;;;;;46.96;10.77;100404.97;5589703;31;32858;-69
2022/07/22 10:47:03;;;;;;;10.05;2.28;;;;;;;47.20;10.45;100403.13;5589890;31;34327;-69
2022/07/22 10:50:35;;;;;;;3.87;1.60;;;;;;;48.73;10.72;100398.06;5590412;31;34380;-69
2022/07/22 10:53:52;;;;;;;4.43;1.80;;;;;;;49.30;10.48;100394.28;5589829;31;33326;-69
2022/07/22 10:56:55;;;;;;;5.12;1.85;;;;;;;49.79;9.69;100392.56;5590267;31;32821;-68
2022/07/22 10:59:57;;;;;;;2.53;1.90;;;;;;;50.36;9.61;100400.59;5589586;31;33253;-70
2022/07/22 11:03:01;;;;;;;4.87;1.90;;;;;;;49.60;9.92;100390.50;5590218;31;33907;-69
2022/07/22 11:06:23;;;;;;;2.75;1.85;;;;;;;48.24;10.42;100385.50;5590474;31;33905;-70
2022/07/22 11:09:34;;;;;;;6.20;2.00;;;;;;;48.36;10.26;100384.16;5589250;31;32871;-69
2022/07/22 11:12:38;;;;;;;4.45;2.00;;;;;;;47.77;10.26;100372.44;5589605;31;32356;-70
2022/07/22 11:15:41;;;;;;;5.57;2.00;;;;;;;47.57;11.31;100369.44;5590226;31;34017;-70
2022/07/22 11:18:51;;;;;;;12.23;2.50;;;;;;;50.41;9.89;100373.84;5589347;31;34578;-71
2022/07/22 11:21:57;;;;;;;5.75;2.40;;;;;;;49.76;10.15;100379.34;5589203;31;33327;-70
2022/07/22 11:25:05;;;;;;;6.55;2.30;;;;;;;49.36;10.24;100366.41;5589585;31;32107;-71
2022/07/22 11:28:08;;;;;;;9.85;2.03;;;;;;;49.39;10.29;100368.34;5563528;31;33552;-69
2022/07/22 11:31:15;;;;;;;5.85;2.03;;;;;;;48.52;11.01;100360.97;5590168;31;33913;-71
2022/07/22 11:34:20;;;;;;;5.65;2.00;;;;;;;49.73;10.38;100363.25;5589896;31;34373;-70
2022/07/22 11:37:24;;;;;;;4.70;2.40;;;;;;;49.63;10.59;100358.63;5589962;31;34001;-70
2022/07/22 11:40:33;;;;;;;8.25;2.30;;;;;;;50.10;10.18;100355.66;5589620;31;34228;-70
2022/07/22 11:43:44;;;;;;;4.18;2.00;;;;;;;49.90;10.06;100348.00;5589850;31;34696;-70
2022/07/22 11:46:48;;;;;;;3.97;2.15;;;;;;;50.57;10.71;100333.56;5589234;31;32292;-71
2022/07/22 11:49:51;;;;;;;4.90;2.10;;;;;;;50.78;9.95;100324.59;5576429;31;33339;-71
2022/07/22 11:52:54;;;;;;;5.32;2.05;;;;;;;50.94;9.34;100324.53;5588943;31;33944;-71
2022/07/22 11:56:02;;;;;;;4.50;1.73;;;;;;;50.35;10.47;100325.59;5575801;31;32308;-70
2022/07/22 11:59:06;;;;;;;3.55;2.12;;;;;;;51.98;9.62;100324.03;5589195;31;33580;-71
2022/07/22 12:02:13;;;;;;;4.72;2.40;;;;;;;51.90;9.29;100324.69;5589737;31;34886;-71
2022/07/22 12:05:17;;;;;;;4.53;2.08;;;;;;;50.70;10.01;100311.84;5589735;31;33947;-69
2022/07/22 12:08:41;;;;;;;4.15;2.10;;;;;;;50.96;10.05;100319.25;5589048;31;33065;-70
2022/07/22 12:11:50;;;;;;;4.60;2.10;;;;;;;52.12;8.97;100319.97;5588796;31;34731;-69
2022/07/22 12:14:57;;;;;;;4.68;2.15;;;;;;;52.00;8.87;100310.19;5589831;31;33926;-71
2022/07/22 12:18:20;;;;;;;9.55;2.20;;;;;;;51.34;9.91;100302.47;5589556;31;34161;-71
2022/07/22 12:21:25;;;;;;;4.90;2.17;;;;;;;52.17;9.57;100301.63;5589715;31;33963;-70
2022/07/22 12:24:44;;;;;;;4.82;2.15;;;;;;;50.53;10.27;100288.50;5589755;31;34015;-71
2022/07/22 12:28:01;;;;;;;4.97;2.40;;;;;;;53.93;8.23;100285.19;5588795;31;32491;-71
2022/07/22 12:31:04;;;;;;;2.25;2.05;;;;;;;53.54;8.07;100286.72;5588546;31;32880;-71
2022/07/22 12:34:07;;;;;;;7.82;2.72;;;;;;;52.64;8.68;100285.47;5588692;31;35106;-71
2022/07/22 12:37:27;;;;;;;6.70;2.50;;;;;;;53.89;7.80;100276.78;5588462;31;33950;-72
2022/07/22 12:40:33;;;;;;;7.62;2.35;;;;;;;52.88;8.76;100271.69;5588653;31;35096;-71
2022/07/22 12:43:38;;;;;;;6.75;2.33;;;;;;;53.84;8.41;100265.28;5588678;31;32543;-71
2022/07/22 12:46:49;;;;;;;4.12;2.37;;;;;;;53.47;8.42;100267.13;5575743;31;32948;-72
2022/07/22 12:49:52;;;;;;;7.95;2.58;;;;;;;52.59;9.18;100260.56;5588519;31;32974;-72
2022/07/22 12:53:04;;;;;;;8.40;2.40;;;;;;;52.54;8.92;100250.59;5588364;31;34701;-71
2022/07/22 12:56:20;;;;;;;4.72;2.25;;;;;;;53.87;9.14;100247.31;5588125;31;33953;-70
2022/07/22 12:59:24;;;;;;;4.15;2.20;;;;;;;52.06;8.98;100243.28;5588652;31;33225;-71
2022/07/22 13:02:27;;;;;;;7.35;2.42;;;;;;;51.45;9.37;100235.12;5588656;31;33880;-70
2022/07/22 13:05:35;;;;;;;6.93;2.33;;;;;;;51.27;9.75;100235.59;5588436;31;33927;-70
2022/07/22 13:08:40;;;;;;;6.22;2.10;;;;;;;51.61;9.34;100229.34;5589527;31;34790;-70
2022/07/22 13:11:52;;;;;;;7.40;2.00;;;;;;;51.60;9.99;100222.12;5588480;31;33999;-69
2022/07/22 13:14:56;;;;;;;7.70;2.35;;;;;;;50.35;10.09;100220.37;5588215;31;34852;-69
2022/07/22 13:17:59;;;;;;;5.75;2.45;;;;;;;49.90;10.67;100217.44;5588883;31;33931;-69
2022/07/22 13:21:02;;;;;;;4.00;2.15;;;;;;;50.54;10.78;100221.50;5588389;31;33335;-71
2022/07/22 13:24:05;;;;;;;6.47;2.15;;;;;;;50.17;11.17;100214.34;5589103;31;34626;-71
2022/07/22 13:27:09;;;;;;;9.55;2.12;;;;;;;50.98;10.13;100209.41;5588083;31;35092;-69
2022/07/22 13:30:13;;;;;;;5.43;2.08;;;;;;;51.52;9.02;100212.25;5587916;31;35261;-70
2022/07/22 13:33:17;;;;;;;5.15;2.10;;;;;;;52.01;8.96;100217.59;5587594;31;32814;-70
2022/07/22 13:36:19;;;;;;;4.78;1.95;;;;;;;52.28;8.87;100219.97;5588681;31;33837;-70
2022/07/22 13:39:23;;;;;;;8.10;2.40;;;;;;;50.16;9.43;100216.37;5588547;31;34223;-70
2022/07/22 13:42:26;;;;;;;3.33;1.95;;;;;;;51.79;9.35;100217.50;5587583;31;32765;-68
2022/07/22 13:45:29;;;;;;;7.95;2.12;;;;;;;52.44;8.80;100211.31;5588380;31;34583;-68
2022/07/22 13:48:31;;;;;;;4.37;2.25;;;;;;;52.15;8.03;100214.31;5587169;31;32848;-68
2022/07/22 13:51:35;;;;;;;7.50;2.25;;;;;;;51.91;8.27;100213.06;5588286;31;34249;-71
2022/07/22 13:54:37;;;;;;;7.62;2.20;;;;;;;51.69;8.48;100207.28;5588544;31;33911;-71
2022/07/22 13:57:41;;;;;;;9.00;2.10;;;;;;;52.54;7.93;100201.66;5587118;31;34261;-69
2022/07/22 14:00:44;;;;;;;4.68;2.08;;;;;;;54.09;6.99;100205.44;5587102;31;34763;-71
2022/07/22 14:03:47;;;;;;;9.85;2.20;;;;;;;54.56;7.07;100199.38;5587357;31;33003;-70
2022/07/22 14:06:54;;;;;;;4.47;2.30;;;;;;;54.46;7.09;100197.81;5590336;31;33916;-69
2022/07/22 14:09:59;;;;;;;6.80;2.35;;;;;;;48.36;10.59;100189.94;5590560;31;33867;-69
2022/07/22 14:13:02;;;;;;;5.53;2.47;;;;;;;47.37;10.83;100186.59;5576654;31;33434;-69
2022/07/22 14:19:49;;;;;;;4.00;2.10;;;;;;;50.29;9.58;100183.41;5589858;31;34007;-70
2022/07/22 14:23:01;;;;;;;7.00;2.35;;;;;;;51.75;9.01;100179.22;5589529;31;32758;-70
2022/07/22 14:26:04;;;;;;;9.75;2.60;;;;;;;52.42;8.37;100186.28;5589947;31;32775;-70
2022/07/22 14:29:07;;;;;;;6.75;2.55;;;;;;;48.81;10.54;100181.88;5589679;31;33480;-70